Time;durP1;ratioP1;P1;durP2;ratioP2;P2;SDS_P1;SDS_P2;PMS_P1;PMS_P2;Temp;Humidity;BMP_temperature;BMP_pressure;BME280_temperature;BME280_humidity;BME280_pressure;Samples;Min_cycle;Max_cycle;Signal;HPM_P1;HPM_P2
2021/07/31 00:01:02;;;;;;;9.68;4.68;;;16.60;99.90;;;;;;5043282;28;20398;-73
2021/07/31 00:03:29;;;;;;;6.07;4.53;;;16.60;99.90;;;;;;5048970;28;20053;-73
2021/07/31 00:05:56;;;;;;;5.53;4.50;;;16.50;99.90;;;;;;5043810;28;20053;-73
2021/07/31 00:08:23;;;;;;;6.82;4.53;;;16.50;99.90;;;;;;5043129;28;20061;-73
2021/07/31 00:10:50;;;;;;;7.38;4.32;;;16.50;99.90;;;;;;5054639;28;20072;-73
2021/07/31 00:13:18;;;;;;;7.07;4.72;;;16.40;99.90;;;;;;5045744;28;20051;-73
2021/07/31 00:15:44;;;;;;;5.65;4.25;;;16.40;99.90;;;;;;5043928;28;20056;-73
2021/07/31 00:18:12;;;;;;;8.18;4.15;;;16.30;99.90;;;;;;5042620;28;20049;-73
2021/07/31 00:20:39;;;;;;;5.60;4.28;;;16.10;99.90;;;;;;5044432;28;20134;-73
2021/07/31 00:23:06;;;;;;;5.13;4.55;;;16.10;99.90;;;;;;5043417;28;20057;-71
2021/07/31 00:25:33;;;;;;;5.90;4.43;;;16.00;99.90;;;;;;5041999;28;20052;-72
2021/07/31 00:28:00;;;;;;;4.53;4.00;;;16.00;99.90;;;;;;5042753;28;20077;-72
2021/07/31 00:30:28;;;;;;;4.63;4.18;;;16.00;99.90;;;;;;5023370;28;20073;-72
2021/07/31 00:32:56;;;;;;;5.50;4.20;;;16.00;99.90;;;;;;5025886;28;20045;-74
2021/07/31 00:35:24;;;;;;;7.95;4.60;;;15.90;99.90;;;;;;5062309;28;20489;-72
2021/07/31 00:37:51;;;;;;;6.15;3.42;;;15.90;99.90;;;;;;5064711;28;20048;-72
2021/07/31 00:40:18;;;;;;;7.03;4.03;;;15.80;99.90;;;;;;5048650;28;20151;-72
2021/07/31 00:42:46;;;;;;;5.53;3.75;;;15.70;99.90;;;;;;5057073;28;20071;-72
2021/07/31 00:45:13;;;;;;;6.53;3.55;;;15.70;99.90;;;;;;5046796;28;20049;-72
2021/07/31 00:47:42;;;;;;;5.40;3.90;;;15.70;99.90;;;;;;5048620;28;20102;-72
2021/07/31 00:50:09;;;;;;;4.97;3.70;;;15.60;99.90;;;;;;5049005;28;20111;-72
2021/07/31 00:52:39;;;;;;;4.85;3.35;;;15.60;99.90;;;;;;5041968;28;20317;-74
2021/07/31 00:55:07;;;;;;;7.78;3.20;;;15.60;99.90;;;;;;5038380;28;20050;-74
2021/07/31 00:57:38;;;;;;;6.50;3.70;;;15.50;99.90;;;;;;5024634;28;20041;-73
2021/07/31 01:00:20;;;;;;;5.63;3.40;;;15.50;99.90;;;;;;5034660;28;20053;-72
2021/07/31 01:02:47;;;;;;;6.03;2.92;;;15.40;99.90;;;;;;5043007;28;20440;-72
2021/07/31 01:05:14;;;;;;;8.30;3.05;;;15.40;99.90;;;;;;5041457;28;20315;-72
2021/07/31 01:07:42;;;;;;;4.60;2.97;;;15.30;99.90;;;;;;5026376;28;20064;-74
2021/07/31 01:10:09;;;;;;;6.20;2.75;;;15.20;99.90;;;;;;5042620;28;20143;-74
2021/07/31 01:12:39;;;;;;;4.82;3.35;;;15.10;99.90;;;;;;5025272;28;20064;-73
2021/07/31 01:15:07;;;;;;;7.72;3.45;;;15.10;99.90;;;;;;5037629;28;20467;-74
2021/07/31 01:17:34;;;;;;;4.57;2.97;;;15.10;99.90;;;;;;5022832;28;20045;-74
2021/07/31 01:20:03;;;;;;;6.13;3.47;;;15.20;99.90;;;;;;5050041;28;20114;-73
2021/07/31 01:22:33;;;;;;;7.65;3.05;;;15.10;99.90;;;;;;5053342;28;20169;-73
2021/07/31 01:25:05;;;;;;;5.90;3.58;;;15.10;99.90;;;;;;5061603;28;20055;-72
2021/07/31 01:27:32;;;;;;;6.50;3.47;;;15.20;99.90;;;;;;5029063;28;20040;-72
2021/07/31 01:29:59;;;;;;;5.63;3.40;;;15.20;99.90;;;;;;5041720;28;20053;-72
2021/07/31 01:32:26;;;;;;;6.53;3.40;;;15.20;99.90;;;;;;5046714;28;20497;-72
2021/07/31 01:34:53;;;;;;;7.05;3.42;;;15.30;99.90;;;;;;5064213;28;20045;-72
2021/07/31 01:37:21;;;;;;;5.15;3.70;;;15.30;99.90;;;;;;5048717;28;20055;-73
2021/07/31 01:39:48;;;;;;;3.67;3.38;;;15.30;99.90;;;;;;5064535;28;20059;-73
2021/07/31 01:42:16;;;;;;;3.42;3.05;;;15.30;99.90;;;;;;5045764;28;20060;-73
2021/07/31 01:44:43;;;;;;;6.38;3.45;;;15.20;99.90;;;;;;5045252;28;20059;-73
2021/07/31 01:47:11;;;;;;;3.38;3.08;;;15.20;99.90;;;;;;5042771;28;20147;-73
2021/07/31 01:49:40;;;;;;;5.22;3.13;;;15.10;99.90;;;;;;5044931;28;20137;-73
2021/07/31 01:52:09;;;;;;;6.45;3.60;;;15.10;99.90;;;;;;5049559;28;20049;-73
2021/07/31 01:54:39;;;;;;;3.08;2.88;;;15.00;99.90;;;;;;5033565;28;20060;-72
2021/07/31 01:57:07;;;;;;;3.97;3.50;;;15.00;99.90;;;;;;5029006;28;20049;-73
2021/07/31 01:59:54;;;;;;;3.20;2.90;;;14.90;99.90;;;;;;5046615;28;20061;-73
2021/07/31 02:02:23;;;;;;;5.65;2.65;;;14.80;99.90;;;;;;5030066;28;20517;-72
2021/07/31 02:04:56;;;;;;;7.13;3.55;;;14.80;99.90;;;;;;5027744;28;20049;-73
2021/07/31 02:07:25;;;;;;;6.32;3.17;;;14.90;99.90;;;;;;5043855;28;20044;-73
2021/07/31 02:09:53;;;;;;;6.10;3.20;;;15.00;99.90;;;;;;5043269;28;20048;-73
2021/07/31 02:12:21;;;;;;;7.53;3.35;;;15.10;99.90;;;;;;5043247;28;20101;-73
2021/07/31 02:14:50;;;;;;;6.45;3.63;;;15.20;99.90;;;;;;5052916;28;20325;-73
2021/07/31 02:17:19;;;;;;;4.25;3.40;;;15.20;99.90;;;;;;5057463;28;20906;-73
2021/07/31 02:19:46;;;;;;;7.25;3.40;;;15.20;99.90;;;;;;5061600;28;20420;-73
2021/07/31 02:22:46;;;;;;;3.67;3.00;;;15.20;99.90;;;;;;5056386;28;20318;-73
2021/07/31 02:25:33;;;;;;;5.72;3.50;;;15.10;99.90;;;;;;5043128;28;20053;-72
2021/07/31 02:28:35;;;;;;;6.13;3.80;;;15.10;99.90;;;;;;5026388;28;20233;-74
2021/07/31 02:31:03;;;;;;;3.83;3.15;;;15.10;99.90;;;;;;5055748;28;20532;-72
2021/07/31 02:33:31;;;;;;;3.40;3.10;;;15.10;99.90;;;;;;5018630;28;20047;-71
2021/07/31 02:36:02;;;;;;;4.20;3.53;;;15.00;99.90;;;;;;5029250;28;20069;-74
2021/07/31 02:38:49;;;;;;;3.30;3.05;;;15.10;99.90;;;;;;5033398;28;20057;-73
2021/07/31 02:41:17;;;;;;;6.18;3.47;;;15.10;99.90;;;;;;5024001;28;20254;-73
2021/07/31 02:43:44;;;;;;;5.32;3.60;;;15.10;99.90;;;;;;5024332;28;20053;-73
2021/07/31 02:46:11;;;;;;;6.15;3.78;;;15.10;99.90;;;;;;5041897;28;20053;-72
2021/07/31 02:48:39;;;;;;;6.20;3.80;;;15.10;99.90;;;;;;5045923;28;20388;-72
2021/07/31 02:51:08;;;;;;;4.43;4.03;;;15.20;99.90;;;;;;5052122;28;20053;-73
2021/07/31 02:53:55;;;;;;;6.40;4.13;;;15.20;99.90;;;;;;5037087;28;20218;-74
2021/07/31 02:56:23;;;;;;;7.07;3.65;;;15.20;99.90;;;;;;5013329;28;20049;-72
2021/07/31 02:58:51;;;;;;;6.53;3.70;;;15.20;99.90;;;;;;5027700;28;20065;-73
2021/07/31 03:01:19;;;;;;;3.97;3.47;;;15.10;99.90;;;;;;5025069;28;20049;-73
2021/07/31 03:03:48;;;;;;;9.27;3.13;;;15.10;99.90;;;;;;5035290;28;20346;-73
2021/07/31 03:06:15;;;;;;;5.95;3.53;;;15.10;99.90;;;;;;5026039;28;20295;-73
2021/07/31 03:08:43;;;;;;;4.78;3.40;;;15.00;99.90;;;;;;5011032;28;20148;-72
2021/07/31 03:11:09;;;;;;;4.00;3.05;;;15.00;99.90;;;;;;5010109;28;20524;-73
2021/07/31 03:13:36;;;;;;;5.13;3.70;;;15.00;99.90;;;;;;5027170;28;20465;-74
2021/07/31 03:16:06;;;;;;;3.67;3.38;;;14.90;99.90;;;;;;5015290;28;20092;-73
2021/07/31 03:18:34;;;;;;;7.18;3.80;;;14.90;99.90;;;;;;5023501;28;20045;-73
2021/07/31 03:21:04;;;;;;;5.30;3.40;;;14.90;99.90;;;;;;5047798;28;20056;-73
2021/07/31 03:23:51;;;;;;;6.63;3.40;;;14.80;99.90;;;;;;5019292;28;20524;-73
2021/07/31 03:26:18;;;;;;;5.53;3.40;;;14.80;99.90;;;;;;5026128;28;20049;-72
2021/07/31 03:28:46;;;;;;;6.57;3.25;;;14.80;99.90;;;;;;5043921;28;20588;-73
2021/07/31 03:31:18;;;;;;;8.40;3.40;;;14.80;99.90;;;;;;5026630;28;20045;-73
2021/07/31 03:33:47;;;;;;;5.10;2.92;;;14.80;99.90;;;;;;5031841;28;20600;-73
2021/07/31 03:36:14;;;;;;;6.18;3.70;;;14.80;99.90;;;;;;5042693;28;20132;-73
2021/07/31 03:38:56;;;;;;;3.67;3.28;;;14.80;99.90;;;;;;5043804;28;20060;-73
2021/07/31 03:41:24;;;;;;;6.38;3.40;;;14.70;99.90;;;;;;5043157;28;20053;-73
2021/07/31 03:43:55;;;;;;;3.42;3.10;;;14.70;99.90;;;;;;5042413;28;20045;-73
2021/07/31 03:46:22;;;;;;;5.15;3.50;;;14.60;99.90;;;;;;5009408;28;20064;-73
2021/07/31 03:48:49;;;;;;;5.22;3.53;;;14.60;99.90;;;;;;5045007;28;20088;-73
2021/07/31 03:51:16;;;;;;;8.75;3.97;;;14.60;99.90;;;;;;5034434;28;20041;-73
2021/07/31 03:53:46;;;;;;;4.93;3.53;;;14.60;99.90;;;;;;5059824;28;20055;-73
2021/07/31 03:56:14;;;;;;;4.60;3.00;;;14.60;99.90;;;;;;5011474;28;20049;-73
2021/07/31 03:58:45;;;;;;;5.90;3.28;;;14.50;99.90;;;;;;5026177;28;20132;-73
2021/07/31 04:01:12;;;;;;;5.60;3.35;;;14.50;99.90;;;;;;5025949;28;20045;-73
2021/07/31 04:03:40;;;;;;;6.15;3.20;;;14.50;99.90;;;;;;5042600;28;20354;-73
2021/07/31 04:06:08;;;;;;;7.05;3.00;;;14.50;99.90;;;;;;5040914;28;20060;-73
2021/07/31 04:08:55;;;;;;;4.28;3.45;;;14.50;99.90;;;;;;5043120;28;20309;-73
2021/07/31 04:11:40;;;;;;;3.35;3.05;;;14.50;99.90;;;;;;5044845;28;20084;-73
2021/07/31 04:14:29;;;;;;;4.28;3.10;;;14.50;99.90;;;;;;5023883;28;20184;-73
2021/07/31 04:17:06;;;;;;;5.75;3.40;;;14.50;99.90;;;;;;5008051;28;20057;-73
2021/07/31 04:19:34;;;;;;;5.55;3.22;;;14.60;99.90;;;;;;5012859;28;20135;-73
2021/07/31 04:22:03;;;;;;;7.40;3.42;;;14.60;99.90;;;;;;5053620;28;20576;-73
2021/07/31 04:24:36;;;;;;;5.53;3.20;;;14.50;99.90;;;;;;5045674;28;20447;-72
2021/07/31 04:27:04;;;;;;;6.28;3.20;;;14.50;99.90;;;;;;5047038;28;20155;-72
2021/07/31 04:29:31;;;;;;;6.13;3.20;;;14.50;99.90;;;;;;5045513;28;20526;-72
2021/07/31 04:31:58;;;;;;;5.25;2.90;;;14.40;99.90;;;;;;5009370;28;20052;-72
2021/07/31 04:34:28;;;;;;;5.32;3.22;;;14.40;99.90;;;;;;5052444;28;20390;-72
2021/07/31 04:36:56;;;;;;;6.05;2.85;;;14.40;99.90;;;;;;5042786;28;20041;-72
2021/07/31 04:39:23;;;;;;;5.85;2.78;;;14.50;99.90;;;;;;5041985;28;20084;-72
2021/07/31 04:41:49;;;;;;;3.15;2.85;;;14.50;99.90;;;;;;5041997;28;20048;-72
2021/07/31 04:44:16;;;;;;;8.75;3.70;;;14.50;99.90;;;;;;5042606;28;20173;-72
2021/07/31 04:46:43;;;;;;;5.07;2.80;;;14.50;99.90;;;;;;5035682;28;20053;-72
2021/07/31 04:49:10;;;;;;;3.53;3.15;;;14.60;99.90;;;;;;5006496;28;20265;-72
2021/07/31 04:51:36;;;;;;;6.38;3.00;;;14.60;99.90;;;;;;5054180;28;20114;-71
2021/07/31 04:54:03;;;;;;;7.88;3.60;;;14.80;99.90;;;;;;5062683;28;20060;-72
2021/07/31 04:56:30;;;;;;;3.15;2.85;;;14.80;99.90;;;;;;5045853;28;20048;-72
2021/07/31 04:58:56;;;;;;;4.90;3.22;;;14.90;99.90;;;;;;5026117;28;20033;-72
2021/07/31 05:01:23;;;;;;;6.13;3.42;;;15.00;99.90;;;;;;5044488;28;20056;-72
2021/07/31 05:03:50;;;;;;;4.28;3.00;;;15.00;99.90;;;;;;5045253;28;20052;-72
2021/07/31 05:06:17;;;;;;;7.90;3.08;;;15.10;99.90;;;;;;5045515;28;20041;-72
2021/07/31 05:08:44;;;;;;;19.55;4.43;;;15.10;99.90;;;;;;5046407;28;20068;-73
2021/07/31 05:11:10;;;;;;;4.13;3.00;;;15.10;99.90;;;;;;5047484;28;20045;-73
2021/07/31 05:13:37;;;;;;;4.93;3.83;;;15.10;99.90;;;;;;5048275;28;20425;-72
2021/07/31 05:16:05;;;;;;;6.70;3.78;;;15.20;99.90;;;;;;5046844;28;20132;-72
2021/07/31 05:18:32;;;;;;;6.00;3.95;;;15.30;99.90;;;;;;5045978;28;20610;-72
2021/07/31 05:20:59;;;;;;;4.00;3.70;;;15.40;99.90;;;;;;5036760;28;20531;-72
2021/07/31 05:23:26;;;;;;;3.78;3.47;;;15.60;99.90;;;;;;5065037;28;20062;-73
2021/07/31 05:25:53;;;;;;;4.47;3.80;;;15.70;99.90;;;;;;5065447;28;20060;-72
2021/07/31 05:28:20;;;;;;;5.88;3.83;;;15.70;99.90;;;;;;5057604;28;20064;-73
2021/07/31 05:30:47;;;;;;;4.57;4.15;;;15.60;99.90;;;;;;5045452;28;20059;-72
2021/07/31 05:33:14;;;;;;;7.18;4.25;;;15.60;99.90;;;;;;5049113;28;20036;-72
2021/07/31 05:35:41;;;;;;;7.32;3.97;;;15.80;99.90;;;;;;5051600;28;20436;-72
2021/07/31 05:38:08;;;;;;;5.60;4.25;;;15.80;99.90;;;;;;5046409;28;20051;-72
2021/07/31 05:40:34;;;;;;;4.65;4.30;;;15.90;99.90;;;;;;5052933;28;20323;-73
2021/07/31 05:43:01;;;;;;;4.72;4.13;;;16.10;99.90;;;;;;5059716;28;20056;-73
2021/07/31 05:45:28;;;;;;;4.28;3.83;;;16.10;99.90;;;;;;5045501;28;20041;-72
2021/07/31 05:47:58;;;;;;;6.50;3.80;;;16.20;99.90;;;;;;5012836;28;20412;-73
2021/07/31 05:50:25;;;;;;;4.65;4.15;;;16.20;99.90;;;;;;5043881;28;20509;-73
2021/07/31 05:52:52;;;;;;;5.90;4.10;;;16.10;99.90;;;;;;5059836;28;20052;-73
2021/07/31 05:55:19;;;;;;;8.13;4.40;;;16.00;99.90;;;;;;5059861;28;20213;-72
2021/07/31 05:57:45;;;;;;;3.90;3.60;;;15.90;99.90;;;;;;5045408;28;20052;-72
2021/07/31 06:00:13;;;;;;;6.97;3.85;;;15.90;99.90;;;;;;5025510;28;20060;-73
2021/07/31 06:02:41;;;;;;;5.88;4.25;;;15.90;99.90;;;;;;5032711;28;20060;-73
2021/07/31 06:05:11;;;;;;;4.38;3.97;;;15.90;99.90;;;;;;5026851;28;20041;-73
2021/07/31 06:07:38;;;;;;;4.45;4.05;;;15.90;99.90;;;;;;5044118;28;20056;-73
2021/07/31 06:10:06;;;;;;;4.25;3.95;;;15.90;99.90;;;;;;5044586;28;20405;-73
2021/07/31 06:12:32;;;;;;;4.25;3.95;;;15.90;99.90;;;;;;5046043;28;20057;-73
2021/07/31 06:14:59;;;;;;;5.95;3.78;;;16.00;99.90;;;;;;5045108;28;20083;-73
2021/07/31 06:17:26;;;;;;;7.60;4.60;;;16.10;99.90;;;;;;5045412;28;20053;-72
2021/07/31 06:19:53;;;;;;;6.03;4.13;;;16.10;99.90;;;;;;5045932;28;20045;-73
2021/07/31 06:22:20;;;;;;;8.73;4.50;;;16.10;99.90;;;;;;5048711;28;20475;-73
2021/07/31 06:24:47;;;;;;;5.38;4.68;;;16.10;99.90;;;;;;5055406;28;20102;-73
2021/07/31 06:27:14;;;;;;;3.90;3.67;;;16.10;99.90;;;;;;5044026;28;20049;-73
2021/07/31 06:29:41;;;;;;;4.88;4.40;;;16.10;99.90;;;;;;5043524;28;20509;-72
2021/07/31 06:32:08;;;;;;;4.95;4.60;;;16.10;99.90;;;;;;5044160;28;20049;-73
2021/07/31 06:34:35;;;;;;;8.25;4.80;;;16.10;99.90;;;;;;5058601;28;20488;-72
2021/07/31 06:37:02;;;;;;;4.82;4.43;;;16.20;99.90;;;;;;5048089;28;20171;-73
2021/07/31 06:39:28;;;;;;;6.65;5.30;;;16.20;99.90;;;;;;5048354;28;20049;-72
2021/07/31 06:41:55;;;;;;;5.00;4.50;;;16.20;99.90;;;;;;5044886;28;20045;-73
2021/07/31 06:44:22;;;;;;;6.32;4.97;;;16.30;99.90;;;;;;5045917;28;20072;-72
2021/07/31 06:46:49;;;;;;;12.02;4.82;;;16.30;99.90;;;;;;5043939;28;20090;-72
2021/07/31 06:49:15;;;;;;;5.18;4.75;;;16.30;99.90;;;;;;5043668;28;20068;-72
2021/07/31 06:51:42;;;;;;;4.18;3.88;;;16.40;99.90;;;;;;5047298;28;20520;-73
2021/07/31 06:54:09;;;;;;;4.90;4.47;;;16.40;99.90;;;;;;5045333;28;20045;-72
2021/07/31 06:56:36;;;;;;;5.72;5.13;;;16.30;99.90;;;;;;5045499;28;20069;-74
2021/07/31 06:59:03;;;;;;;6.43;4.60;;;16.20;99.90;;;;;;5044277;28;20053;-72
2021/07/31 07:01:31;;;;;;;4.65;4.25;;;16.10;99.90;;;;;;5009136;28;20037;-74
2021/07/31 07:03:58;;;;;;;4.32;3.58;;;16.10;99.90;;;;;;5045829;28;20501;-73
2021/07/31 07:06:25;;;;;;;4.30;3.90;;;16.10;99.90;;;;;;5043110;28;20242;-73
2021/07/31 07:08:51;;;;;;;5.07;4.68;;;16.00;99.90;;;;;;5027116;28;20068;-73
2021/07/31 07:11:18;;;;;;;4.88;4.32;;;16.00;99.90;;;;;;5024275;28;20046;-73
2021/07/31 07:13:45;;;;;;;7.43;4.70;;;16.00;99.90;;;;;;5007426;28;20045;-72
2021/07/31 07:16:12;;;;;;;5.15;4.55;;;16.00;99.90;;;;;;5022858;28;20103;-71
2021/07/31 07:18:40;;;;;;;11.02;4.95;;;16.10;99.90;;;;;;5024284;28;20068;-73
2021/07/31 07:21:09;;;;;;;8.20;5.13;;;16.20;99.90;;;;;;5040899;28;20141;-73
2021/07/31 07:23:37;;;;;;;9.55;4.97;;;16.20;99.90;;;;;;5042688;28;20044;-72
2021/07/31 07:26:09;;;;;;;5.97;4.88;;;16.30;99.90;;;;;;5042908;28;20061;-73
2021/07/31 07:28:37;;;;;;;5.72;5.20;;;16.30;99.90;;;;;;5044816;28;20048;-72
2021/07/31 07:31:05;;;;;;;5.50;5.10;;;16.30;99.90;;;;;;5044412;28;20079;-72
2021/07/31 07:33:33;;;;;;;7.10;5.35;;;16.30;99.90;;;;;;5032380;28;20036;-72
2021/07/31 07:36:00;;;;;;;13.35;5.68;;;16.30;99.90;;;;;;5063072;28;20053;-72
2021/07/31 07:38:27;;;;;;;6.03;5.55;;;16.30;99.90;;;;;;5063989;28;20481;-72
2021/07/31 07:40:54;;;;;;;5.80;5.25;;;16.30;99.90;;;;;;5062956;28;20057;-72
2021/07/31 07:43:20;;;;;;;11.48;5.28;;;16.30;99.90;;;;;;5048615;28;20131;-72
2021/07/31 07:45:47;;;;;;;5.47;4.95;;;16.40;99.90;;;;;;5043003;28;20052;-72
2021/07/31 07:48:14;;;;;;;5.75;5.22;;;16.40;99.90;;;;;;5027034;28;20059;-74
2021/07/31 07:50:41;;;;;;;5.35;4.85;;;16.40;99.90;;;;;;5025752;28;20060;-72
2021/07/31 07:53:08;;;;;;;5.70;5.28;;;16.50;99.90;;;;;;5041924;28;20053;-71
2021/07/31 07:55:34;;;;;;;6.00;5.38;;;16.50;99.90;;;;;;5034339;23;20253;-82
2021/07/31 07:58:01;;;;;;;5.03;4.82;;;16.60;99.90;;;;;;4990930;28;20120;-81
2021/07/31 08:00:28;;;;;;;6.18;5.00;;;16.60;99.90;;;;;;4981922;28;20450;-85
2021/07/31 08:02:56;;;;;;;5.57;5.18;;;16.70;99.90;;;;;;4993851;28;20511;-81
2021/07/31 08:05:23;;;;;;;5.30;4.85;;;16.70;99.90;;;;;;4969422;28;20077;-81
2021/07/31 08:07:50;;;;;;;5.68;5.18;;;16.80;99.90;;;;;;4992059;28;20063;-81
2021/07/31 08:10:17;;;;;;;7.50;5.50;;;17.00;99.90;;;;;;4976232;28;20038;-81
2021/07/31 08:12:44;;;;;;;5.80;5.47;;;17.00;99.90;;;;;;4975359;28;20042;-81
2021/07/31 08:15:12;;;;;;;5.93;5.35;;;17.00;99.90;;;;;;4993298;28;20062;-81
2021/07/31 08:17:39;;;;;;;8.20;5.60;;;17.00;99.90;;;;;;4995364;28;20101;-80
2021/07/31 08:20:06;;;;;;;5.22;4.97;;;16.90;99.90;;;;;;5003632;28;20053;-82
2021/07/31 08:22:34;;;;;;;5.15;4.65;;;16.90;99.90;;;;;;4994891;28;20113;-82
2021/07/31 08:25:06;;;;;;;7.38;5.32;;;16.80;99.90;;;;;;4981147;28;20065;-80
2021/07/31 08:27:33;;;;;;;5.63;5.13;;;17.00;99.90;;;;;;4996009;28;20683;-81
2021/07/31 08:30:01;;;;;;;9.05;5.97;;;17.20;99.90;;;;;;4980098;28;20077;-80
2021/07/31 08:32:28;;;;;;;5.65;5.20;;;17.10;99.90;;;;;;4982339;28;20149;-81
2021/07/31 08:34:57;;;;;;;6.13;4.82;;;17.00;99.90;;;;;;5000394;28;20053;-81
2021/07/31 08:37:24;;;;;;;6.03;5.50;;;16.90;99.90;;;;;;4995217;28;20110;-82
2021/07/31 08:39:51;;;;;;;4.85;4.55;;;16.70;99.90;;;;;;4996749;28;20046;-82
2021/07/31 08:42:19;;;;;;;6.15;5.75;;;16.70;99.90;;;;;;5013166;28;20050;-83
2021/07/31 08:44:48;;;;;;;5.50;5.10;;;16.70;99.90;;;;;;4987818;28;20357;-81
2021/07/31 08:47:17;;;;;;;6.32;5.35;;;16.90;99.90;;;;;;4959649;28;20058;-84
2021/07/31 08:49:47;;;;;;;6.15;5.57;;;16.90;99.90;;;;;;4971692;28;20080;-84
2021/07/31 08:52:15;;;;;;;7.13;5.85;;;16.90;99.90;;;;;;5008965;28;20076;-83
2021/07/31 08:54:42;;;;;;;6.07;5.57;;;16.90;99.90;;;;;;5002569;28;20050;-82
2021/07/31 08:57:09;;;;;;;5.22;4.82;;;16.90;99.90;;;;;;4999583;28;20049;-83
2021/07/31 08:59:38;;;;;;;6.25;5.75;;;16.90;99.90;;;;;;4985735;28;20081;-81
2021/07/31 09:02:08;;;;;;;5.30;4.90;;;16.80;99.90;;;;;;4997317;28;20115;-82
2021/07/31 09:04:45;;;;;;;6.72;5.38;;;16.80;99.90;;;;;;5000646;28;20110;-82
2021/07/31 09:07:14;;;;;;;13.98;5.43;;;16.80;99.90;;;;;;4983944;28;20122;-81
2021/07/31 09:09:43;;;;;;;5.30;4.93;;;16.70;99.90;;;;;;4981766;28;20058;-82
2021/07/31 09:12:13;;;;;;;7.68;5.50;;;16.80;99.90;;;;;;4979685;28;20667;-82
2021/07/31 09:14:46;;;;;;;5.90;5.00;;;16.80;99.90;;;;;;4995695;28;20053;-83
2021/07/31 09:17:26;;;;;;;9.02;5.97;;;16.80;99.90;;;;;;4994673;28;20064;-81
2021/07/31 09:19:56;;;;;;;5.63;5.15;;;16.90;99.90;;;;;;5005342;28;20618;-81
2021/07/31 09:22:25;;;;;;;6.50;6.00;;;17.10;99.90;;;;;;4993968;28;20072;-80
2021/07/31 09:25:13;;;;;;;8.00;6.30;;;17.10;99.90;;;;;;4979553;28;20050;-82
2021/07/31 09:27:40;;;;;;;8.65;6.63;;;17.20;99.90;;;;;;4974922;28;20428;-82
2021/07/31 09:30:08;;;;;;;7.78;5.68;;;17.20;99.90;;;;;;4991597;28;20046;-81
2021/07/31 09:32:40;;;;;;;7.43;5.72;;;17.20;99.90;;;;;;5008333;28;20057;-84
2021/07/31 09:35:24;;;;;;;7.45;6.43;;;17.30;99.90;;;;;;4978546;28;20663;-80
2021/07/31 09:37:54;;;;;;;7.13;6.40;;;17.30;99.90;;;;;;4995861;28;20050;-82
2021/07/31 09:40:29;;;;;;;10.52;6.00;;;17.30;99.90;;;;;;5013134;28;20046;-81
2021/07/31 09:43:14;;;;;;;6.30;5.80;;;17.30;99.90;;;;;;5003994;28;20046;-84
2021/07/31 09:45:42;;;;;;;6.05;5.47;;;17.50;99.90;;;;;;5015742;28;20050;-83
2021/07/31 09:48:11;;;;;;;6.47;5.80;;;17.40;99.90;;;;;;4998463;28;20096;-82
2021/07/31 09:50:50;;;;;;;6.30;5.95;;;17.50;99.90;;;;;;5007186;28;20054;-82
2021/07/31 09:53:21;;;;;;;7.38;6.28;;;17.50;99.90;;;;;;5016676;28;20050;-82
2021/07/31 09:55:51;;;;;;;6.53;6.13;;;17.60;99.90;;;;;;4998031;28;20049;-83
2021/07/31 09:58:19;;;;;;;6.45;5.97;;;17.60;99.90;;;;;;4989042;28;20046;-82
2021/07/31 10:00:59;;;;;;;7.05;6.63;;;17.50;99.90;;;;;;4981057;28;20046;-83
2021/07/31 10:03:26;;;;;;;7.03;6.45;;;17.40;99.90;;;;;;4980763;28;20054;-83
2021/07/31 10:05:55;;;;;;;6.75;6.35;;;17.50;99.90;;;;;;4989751;28;20050;-81
2021/07/31 10:08:36;;;;;;;6.97;6.28;;;17.60;99.90;;;;;;5001792;28;20129;-82
2021/07/31 10:11:03;;;;;;;6.63;6.22;;;17.60;99.90;;;;;;5018392;28;20073;-83
2021/07/31 10:13:37;;;;;;;5.95;5.45;;;17.70;99.90;;;;;;5024594;28;20045;-81
2021/07/31 10:16:04;;;;;;;6.65;6.05;;;17.60;99.90;;;;;;5000698;28;20050;-81
2021/07/31 10:18:32;;;;;;;7.22;6.60;;;17.40;99.90;;;;;;5003759;28;20046;-79
2021/07/31 10:21:05;;;;;;;7.70;6.65;;;17.40;99.90;;;;;;4996681;28;20049;-80
2021/07/31 10:23:56;;;;;;;7.05;6.40;;;17.40;99.90;;;;;;5012223;28;20107;-82
2021/07/31 10:26:23;;;;;;;7.72;7.05;;;17.60;99.90;;;;;;5010792;28;20531;-83
2021/07/31 10:28:53;;;;;;;6.57;5.97;;;17.70;99.90;;;;;;4987988;28;20145;-83
2021/07/31 10:31:34;;;;;;;6.65;6.20;;;17.60;99.90;;;;;;5003868;28;20064;-84
2021/07/31 10:34:03;;;;;;;6.90;6.43;;;17.60;99.90;;;;;;4989798;28;20049;-82
2021/07/31 10:36:31;;;;;;;7.63;6.40;;;17.50;99.90;;;;;;4983135;28;20837;-82
2021/07/31 10:39:25;;;;;;;6.70;6.30;;;17.50;99.90;;;;;;5010848;23;20217;-81
2021/07/31 10:42:00;;;;;;;6.97;6.38;;;17.50;99.90;;;;;;5032518;23;20168;-82
2021/07/31 10:44:29;;;;;;;7.43;6.82;;;17.60;99.90;;;;;;5026194;28;20053;-82
2021/07/31 10:47:22;;;;;;;7.60;7.10;;;17.80;99.90;;;;;;4998289;28;20108;-82
2021/07/31 10:49:51;;;;;;;7.07;6.50;;;18.10;99.90;;;;;;5034821;28;20077;-79
2021/07/31 10:53:01;;;;;;;7.28;6.60;;;18.30;99.90;;;;;;5020321;28;20053;-82
2021/07/31 10:55:47;;;;;;;7.72;7.18;;;18.50;99.90;;;;;;4979010;28;20612;-82
2021/07/31 10:58:17;;;;;;;7.40;6.78;;;18.30;99.90;;;;;;5015998;28;20060;-80
2021/07/31 11:00:50;;;;;;;6.82;6.40;;;18.10;99.90;;;;;;5031875;28;20080;-81
2021/07/31 11:03:20;;;;;;;6.20;5.80;;;17.90;99.90;;;;;;5016457;28;20076;-86
2021/07/31 11:05:48;;;;;;;6.43;5.85;;;17.90;99.90;;;;;;5026414;28;20050;-81
2021/07/31 11:08:20;;;;;;;7.20;6.60;;;17.90;99.90;;;;;;5000786;28;20111;-82
2021/07/31 11:10:56;;;;;;;6.95;6.45;;;17.80;99.90;;;;;;5031286;28;20106;-83
2021/07/31 11:13:24;;;;;;;7.65;6.50;;;17.90;99.90;;;;;;5002450;28;20069;-81
2021/07/31 11:16:00;;;;;;;7.25;6.57;;;17.90;99.90;;;;;;4993233;28;20047;-83
2021/07/31 11:18:36;;;;;;;7.22;6.82;;;18.00;99.90;;;;;;4979416;28;20484;-81
2021/07/31 11:21:24;;;;;;;6.90;6.32;;;18.10;99.90;;;;;;5025207;28;20043;-81
2021/07/31 11:23:53;;;;;;;11.98;7.35;;;18.30;99.90;;;;;;5018411;28;20566;-81
2021/07/31 11:26:46;;;;;;;7.55;7.00;;;18.40;99.90;;;;;;4997887;28;20046;-82
2021/07/31 11:29:23;;;;;;;7.82;6.68;;;18.50;99.90;;;;;;4997009;28;20046;-83
2021/07/31 11:32:14;;;;;;;8.85;7.20;;;18.70;99.90;;;;;;4996971;28;20054;-82
2021/07/31 11:34:47;;;;;;;7.22;6.53;;;18.80;99.90;;;;;;5027643;28;20042;-82
2021/07/31 11:37:16;;;;;;;8.07;7.40;;;18.70;99.90;;;;;;5019917;28;20086;-83
2021/07/31 11:39:47;;;;;;;7.82;7.35;;;18.80;99.90;;;;;;4980160;28;20069;-82
2021/07/31 11:42:19;;;;;;;7.05;6.65;;;18.90;99.90;;;;;;4981145;28;20051;-81
2021/07/31 11:44:46;;;;;;;9.13;8.48;;;19.30;99.90;;;;;;4980063;28;20408;-83
2021/07/31 11:47:13;;;;;;;7.65;6.97;;;19.90;99.90;;;;;;5026784;28;20046;-84
2021/07/31 11:49:40;;;;;;;7.93;6.97;;;20.30;99.90;;;;;;4992953;28;20067;-81
2021/07/31 11:52:11;;;;;;;9.55;7.57;;;20.10;99.90;;;;;;5010683;28;20045;-83
2021/07/31 11:54:42;;;;;;;8.15;7.45;;;19.70;99.90;;;;;;5046950;28;20094;-82
2021/07/31 11:57:10;;;;;;;9.95;8.88;;;19.20;99.90;;;;;;5022907;28;20042;-81
2021/07/31 11:59:38;;;;;;;10.82;6.97;;;19.20;99.90;;;;;;4979422;28;20092;-84
2021/07/31 12:02:06;;;;;;;7.60;7.13;;;19.50;99.90;;;;;;5013191;28;20175;-80
2021/07/31 12:05:00;;;;;;;9.00;8.10;;;19.40;99.90;;;;;;4997077;28;20057;-82
2021/07/31 12:07:27;;;;;;;8.00;7.60;;;19.40;99.90;;;;;;4975334;28;20046;-82
2021/07/31 12:09:58;;;;;;;9.48;8.70;;;20.00;99.90;;;;;;5013110;28;20138;-80
2021/07/31 12:12:32;;;;;;;7.88;7.38;;;20.40;99.90;;;;;;5031882;28;20057;-85
2021/07/31 12:15:14;;;;;;;9.23;8.48;;;20.20;99.90;;;;;;5018917;28;20054;-82
2021/07/31 12:18:02;;;;;;;8.85;8.13;;;20.20;99.90;;;;;;5022800;28;20046;-83
2021/07/31 12:20:38;;;;;;;8.10;7.60;;;20.40;99.90;;;;;;4994703;28;20060;-85
2021/07/31 12:23:11;;;;;;;8.75;8.20;;;20.70;99.90;;;;;;5024703;28;20050;-80
2021/07/31 12:25:57;;;;;;;8.88;8.27;;;20.60;99.90;;;;;;4992598;28;20482;-83
2021/07/31 12:28:38;;;;;;;8.00;7.40;;;20.80;99.90;;;;;;5001480;28;20046;-80
2021/07/31 12:31:28;;;;;;;7.80;7.30;;;20.50;99.90;;;;;;4996074;28;20398;-82
2021/07/31 12:33:58;;;;;;;8.77;8.27;;;20.30;99.90;;;;;;5013561;28;20038;-83
2021/07/31 12:36:25;;;;;;;7.65;7.13;;;20.20;99.90;;;;;;4994183;28;20042;-83
2021/07/31 12:38:57;;;;;;;9.32;8.63;;;20.40;99.90;;;;;;4981056;28;20702;-84
2021/07/31 12:41:25;;;;;;;15.82;12.68;;;20.30;99.90;;;;;;5027466;28;20050;-81
2021/07/31 12:43:52;;;;;;;7.80;7.30;;;20.20;99.90;;;;;;5001409;28;20527;-80
2021/07/31 12:46:22;;;;;;;8.93;8.05;;;19.90;99.90;;;;;;5012357;28;20559;-82
2021/07/31 12:48:52;;;;;;;9.77;8.50;;;19.80;99.90;;;;;;5024100;28;20483;-82
2021/07/31 12:51:19;;;;;;;8.45;7.72;;;19.90;99.90;;;;;;5012275;28;20042;-83
2021/07/31 12:53:46;;;;;;;9.80;9.02;;;19.90;99.90;;;;;;5019876;28;20084;-80
2021/07/31 12:56:14;;;;;;;13.70;12.50;;;19.90;99.90;;;;;;5010798;28;20071;-80
2021/07/31 12:58:41;;;;;;;11.43;10.27;;;19.80;99.90;;;;;;4998008;28;20069;-80
2021/07/31 13:01:08;;;;;;;13.93;12.73;;;19.80;99.90;;;;;;5008414;28;20106;-80